»·PEaware :: N7GL KBUR-KSMX

N7GL :: KBUR-KSMX

FLIGHT INFORMATION

Flight Status: Arrived
Operator: Privately registered:
United States
More flights under this callsign
Pilot: Georg L. (13308)
Aircraft: BEECH AIRCRAFT SUPER KING AIR 350
(B350)
More flights by this aircraft type
Origin: KBUR Bob Hope-Burbank
United States
Destination: KSMX Santa Maria Pub/Capt Hancock
United States
More flights between these airports :: More routes between these airports
Route: VNY3 FIM V386 RZS KOAKS
File this flight plan on PilotEdge
Remarks:
Altitude:
(Current/Filed)
22,000ft
Speed:
(Current/Filed)
299kts
Departed: 18-Nov-20 09:10 AM
Arrived: 18-Nov-20 09:49 AM
Distance/Time
Traveled:
112nm/0:39
Distance/Time
To Go:
Arrived

Flight Plot

Page will automatically refresh every two minutes.

Flight plan parsing failed; only flown route is shown


Map Options




Map Legend


Flown Route
Filed Route
Departure Airport
Arrival Airport
Navaid (VOR, NDB)
Fix

Horizontal Profiles

Position Reports

Time Latitude Longitude Heading Altitude Ground
Speed
18-Nov-20 09:00 34.200134 -118.358822 258 739ft 0kts
18-Nov-20 09:01 34.200134 -118.358822 258 739ft 0kts
18-Nov-20 09:02 34.200134 -118.358822 258 739ft 0kts
18-Nov-20 09:03 34.200134 -118.358822 258 739ft 0kts
18-Nov-20 09:04 34.200134 -118.358822 258 739ft 0kts
18-Nov-20 09:05 34.199829 -118.359035 157 739ft 0kts
18-Nov-20 09:06 34.199070 -118.360270 189 739ft 7kts
18-Nov-20 09:07 34.199116 -118.366637 269 739ft 19kts
18-Nov-20 09:08 34.198783 -118.369007 180 739ft 0kts
18-Nov-20 09:09 34.197731 -118.356852 92 866ft 123kts
18-Nov-20 09:10 34.175122 -118.334738 200 2492ft 164kts
18-Nov-20 09:11 34.134253 -118.367492 223 4421ft 188kts
18-Nov-20 09:12 34.115756 -118.423053 271 6056ft 208kts
18-Nov-20 09:13 34.117021 -118.489345 271 8262ft 187kts
18-Nov-20 09:14 34.118223 -118.552522 271 9999ft 193kts
18-Nov-20 09:15 34.119770 -118.630949 271 10036ft 264kts
18-Nov-20 09:16 34.121668 -118.724218 271 10024ft 286kts
18-Nov-20 09:17 34.123647 -118.819368 271 10014ft 290kts
18-Nov-20 09:18 34.136614 -118.909915 308 11140ft 253kts
18-Nov-20 09:19 34.173776 -118.975539 299 13126ft 228kts
18-Nov-20 09:20 34.199852 -119.035425 297 15672ft 195kts
18-Nov-20 09:21 34.224657 -119.093783 297 17349ft 196kts
18-Nov-20 09:22 34.249755 -119.153016 297 18877ft 198kts
18-Nov-20 09:23 34.274809 -119.212255 297 20368ft 199kts
18-Nov-20 09:24 34.299940 -119.271711 297 21845ft 200kts
18-Nov-20 09:25 34.326854 -119.335396 297 22258ft 234kts
18-Nov-20 09:26 34.358672 -119.410673 297 22249ft 263kts
18-Nov-20 09:27 34.392925 -119.491957 297 22243ft 279kts
18-Nov-20 09:28 34.428617 -119.576973 297 22239ft 286kts
18-Nov-20 09:29 34.466076 -119.666506 296 21169ft 322kts
18-Nov-20 09:30 34.508112 -119.766896 296 18776ft 332kts
18-Nov-20 09:31 34.552774 -119.861235 300 16259ft 317kts
18-Nov-20 09:32 34.596913 -119.951686 300 13767ft 309kts
18-Nov-20 09:33 34.639217 -120.040141 300 11443ft 297kts
18-Nov-20 09:34 34.679892 -120.125206 300 9341ft 287kts
18-Nov-20 09:35 34.719063 -120.207528 300 9055ft 281kts
18-Nov-20 09:36 34.754926 -120.280541 311 9029ft 228kts
18-Nov-20 09:37 34.796777 -120.332178 314 8870ft 213kts
18-Nov-20 09:38 34.776173 -120.391250 191 7440ft 250kts
18-Nov-20 09:39 34.704688 -120.409557 192 5928ft 271kts
18-Nov-20 09:40 34.639301 -120.421243 165 4786ft 230kts
18-Nov-20 09:41 34.633618 -120.360622 34 4832ft 246kts
18-Nov-20 09:42 34.700117 -120.339722 13 4803ft 239kts
18-Nov-20 09:43 34.761008 -120.323070 12 4806ft 208kts
18-Nov-20 09:44 34.796662 -120.354222 264 4236ft 207kts
18-Nov-20 09:45 34.808519 -120.411348 317 2601ft 157kts
18-Nov-20 09:46 34.847041 -120.424066 0 1590ft 172kts
18-Nov-20 09:47 34.883137 -120.434776 323 584ft 109kts
18-Nov-20 09:48 34.899600 -120.453550 0 266ft 18kts
18-Nov-20 09:49 34.901081 -120.453308 121 266ft 8kts
18-Nov-20 09:50 34.900744 -120.450334 13 266ft 7kts
18-Nov-20 09:51 34.900912 -120.450372 169 266ft 0kts

Navigation Log

Ident Type
Flight plan parsing failed, navigation log unavailable